Time;durP1;ratioP1;P1;durP2;ratioP2;P2;SDS_P1;SDS_P2;PMS_P1;PMS_P2;Temp;Humidity;BMP_temperature;BMP_pressure;BME280_temperature;BME280_humidity;BME280_pressure;Samples;Min_cycle;Max_cycle;Signal;HPM_P1;HPM_P2
2022/01/08 00:03:46;;;;;;;13.52;5.45;;;;;;;-0.37;100.00;100655.91;15296812;19;20082;-67
2022/01/08 00:08:49;;;;;;;12.07;5.05;;;;;;;-0.36;100.00;100665.41;15297186;19;20010;-67
2022/01/08 00:13:50;;;;;;;12.07;5.72;;;;;;;-0.41;100.00;100662.53;15294524;19;20043;-67
2022/01/08 00:18:52;;;;;;;15.88;5.85;;;;;;;-0.38;100.00;100677.28;15297267;19;20014;-67
2022/01/08 00:23:54;;;;;;;12.75;6.05;;;;;;;-0.31;100.00;100670.81;15294511;19;20032;-67
2022/01/08 00:28:56;;;;;;;16.98;7.47;;;;;;;-0.38;100.00;100673.00;15295910;19;20021;-67
2022/01/08 00:34:00;;;;;;;16.33;7.55;;;;;;;-0.31;100.00;100679.41;15294376;19;20350;-67
2022/01/08 00:39:04;;;;;;;18.90;7.57;;;;;;;-0.29;100.00;100676.94;15290119;19;20015;-67
2022/01/08 00:44:06;;;;;;;17.05;6.28;;;;;;;-0.29;100.00;100676.94;15287830;19;20070;-67
2022/01/08 00:49:07;;;;;;;17.27;7.07;;;;;;;-0.23;100.00;100673.00;15289165;19;20074;-67
2022/01/08 00:54:09;;;;;;;14.73;7.28;;;;;;;-0.21;100.00;100676.59;15287809;19;20086;-67
2022/01/08 00:59:10;;;;;;;19.65;7.82;;;;;;;-0.15;100.00;100685.44;15289955;19;20494;-67
2022/01/08 01:04:12;;;;;;;20.50;9.30;;;;;;;-0.07;100.00;100673.94;15286942;19;20105;-67
2022/01/08 01:09:14;;;;;;;24.48;9.65;;;;;;;-0.02;100.00;100677.66;15287954;19;20018;-66
2022/01/08 01:14:16;;;;;;;19.08;8.48;;;;;;;0.06;100.00;100666.13;15283521;19;20085;-67
2022/01/08 01:19:18;;;;;;;19.77;9.20;;;;;;;0.09;100.00;100661.16;15288151;19;20022;-67
2022/01/08 01:24:23;;;;;;;17.85;8.75;;;;;;;0.06;100.00;100660.97;15290415;19;20025;-67
2022/01/08 01:29:34;;;;;;;20.85;8.70;;;;;;;0.05;100.00;100661.75;15296768;19;20014;-67
2022/01/08 01:50:36;;;;;;;18.95;8.85;;;;;;;-0.12;100.00;100645.34;15286123;19;20369;-67
2022/01/08 01:55:39;;;;;;;22.17;8.73;;;;;;;-0.15;100.00;100644.28;15282431;19;20074;-67
2022/01/08 02:00:42;;;;;;;17.88;7.15;;;;;;;-0.26;100.00;100647.09;15285113;19;20006;-65
2022/01/08 02:05:46;;;;;;;17.33;7.60;;;;;;;-0.36;100.00;100652.53;15285693;19;20514;-67
2022/01/08 02:10:48;;;;;;;16.90;7.57;;;;;;;-0.36;100.00;100660.25;15282974;19;20053;-67
2022/01/08 02:15:52;;;;;;;17.85;8.50;;;;;;;-0.45;100.00;100659.69;15281099;19;20098;-67
2022/01/08 02:20:56;;;;;;;16.48;6.65;;;;;;;-0.48;100.00;100655.28;15283361;19;20597;-67
2022/01/08 02:26:06;;;;;;;18.77;6.90;;;;;;;-0.56;100.00;100662.50;15288032;19;20014;-67
2022/01/08 02:31:20;;;;;;;15.65;7.75;;;;;;;-0.59;100.00;100667.47;15297615;19;20757;-67
2022/01/08 02:36:22;;;;;;;16.73;7.57;;;;;;;-0.54;100.00;100663.50;15298973;19;20070;-67
2022/01/08 02:41:24;;;;;;;17.83;8.07;;;;;;;-0.62;100.00;100661.25;15298667;19;20014;-67
2022/01/08 02:46:28;;;;;;;18.20;7.63;;;;;;;-0.63;100.00;100672.34;15297929;19;20027;-67
2022/01/08 02:51:33;;;;;;;17.80;7.65;;;;;;;-0.63;100.00;100655.25;15296859;19;20416;-66
2022/01/08 02:56:44;;;;;;;16.02;7.32;;;;;;;-0.70;100.00;100650.53;15296655;19;20038;-67
2022/01/08 03:01:46;;;;;;;15.65;7.10;;;;;;;-0.70;100.00;100658.25;15297169;19;20030;-67
2022/01/08 03:06:48;;;;;;;17.23;7.50;;;;;;;-0.76;100.00;100665.59;15294912;19;20018;-67
2022/01/08 03:11:50;;;;;;;13.77;7.07;;;;;;;-0.78;100.00;100670.63;15294926;19;20035;-67
2022/01/08 03:16:51;;;;;;;20.92;9.13;;;;;;;-0.79;100.00;100663.72;15300028;19;20057;-67
2022/01/08 03:21:55;;;;;;;21.88;7.93;;;;;;;-0.83;100.00;100678.84;15300166;19;20027;-67
2022/01/08 03:26:57;;;;;;;18.85;8.15;;;;;;;-0.90;100.00;100670.78;15293309;19;20074;-67
2022/01/08 03:31:59;;;;;;;24.38;8.82;;;;;;;-0.86;100.00;100655.53;15293326;19;20018;-67
2022/01/08 03:37:00;;;;;;;15.60;7.90;;;;;;;-0.93;100.00;100642.31;15292737;19;20090;-67
2022/01/08 03:42:02;;;;;;;18.55;8.23;;;;;;;-1.00;100.00;100642.72;15294429;19;20426;-67
2022/01/08 03:52:29;;;;;;;20.00;8.32;;;;;;;-1.08;100.00;100628.53;15290028;19;20090;-67
2022/01/08 03:57:30;;;;;;;20.15;8.60;;;;;;;-1.07;100.00;100635.44;15292994;19;20026;-67
2022/01/08 04:02:32;;;;;;;19.60;9.05;;;;;;;-1.07;100.00;100631.19;15291432;19;20348;-67
2022/01/08 04:07:34;;;;;;;15.63;7.85;;;;;;;-1.10;100.00;100630.97;15292049;19;20010;-67
2022/01/08 04:12:42;;;;;;;23.38;9.30;;;;;;;-1.05;100.00;100638.09;15289739;19;20077;-67
2022/01/08 04:17:44;;;;;;;18.90;8.68;;;;;;;-1.11;100.00;100636.94;15292105;19;20006;-67
2022/01/08 04:22:49;;;;;;;23.85;9.45;;;;;;;-1.09;100.00;100647.31;15288879;19;20482;-67
2022/01/08 04:27:51;;;;;;;22.95;10.88;;;;;;;-1.12;100.00;100650.56;15291025;19;20078;-67
2022/01/08 04:32:52;;;;;;;20.70;9.07;;;;;;;-1.25;100.00;100661.78;15288270;19;20011;-67
2022/01/08 04:37:54;;;;;;;23.75;10.88;;;;;;;-1.10;100.00;100666.06;15290574;19;20020;-67
2022/01/08 04:42:56;;;;;;;24.80;10.60;;;;;;;-1.08;100.00;100665.38;15288075;19;20486;-67
2022/01/08 04:47:59;;;;;;;22.58;10.85;;;;;;;-0.98;100.00;100658.25;15283874;19;20022;-68
2022/01/08 04:53:01;;;;;;;23.10;11.63;;;;;;;-0.88;100.00;100668.28;15287141;19;20078;-67
2022/01/08 04:58:04;;;;;;;25.05;10.43;;;;;;;-0.84;100.00;100659.97;15288421;19;20010;-67
2022/01/08 05:03:06;;;;;;;20.42;10.57;;;;;;;-0.72;100.00;100671.00;15287554;19;20010;-66
2022/01/08 05:08:07;;;;;;;21.77;10.23;;;;;;;-0.68;100.00;100672.06;15285267;19;20398;-66
2022/01/08 05:13:09;;;;;;;27.27;11.88;;;;;;;-0.62;100.00;100684.41;15286966;19;20114;-67
2022/01/08 05:18:11;;;;;;;22.33;9.50;;;;;;;-0.61;100.00;100679.34;15286751;19;20482;-66
2022/01/08 05:23:13;;;;;;;28.83;10.25;;;;;;;-0.60;100.00;100686.28;15285144;19;20018;-66
2022/01/08 05:28:15;;;;;;;22.27;10.07;;;;;;;-0.64;100.00;100707.47;15283512;19;20553;-66
2022/01/08 05:33:16;;;;;;;26.65;11.00;;;;;;;-0.66;100.00;100710.72;15285687;19;20114;-66
2022/01/08 05:38:18;;;;;;;22.95;10.18;;;;;;;-0.64;100.00;100717.75;15286965;19;20485;-66
2022/01/08 05:43:20;;;;;;;24.85;10.82;;;;;;;-0.64;100.00;100717.75;15283847;19;20002;-67
2022/01/08 05:48:22;;;;;;;19.00;8.85;;;;;;;-0.56;100.00;100719.09;15282976;19;20474;-66
2022/01/08 05:53:23;;;;;;;23.30;9.10;;;;;;;-0.60;100.00;100730.00;15283113;19;20074;-66
2022/01/08 05:58:25;;;;;;;20.23;10.40;;;;;;;-0.64;100.00;100729.75;15289596;19;20403;-66
2022/01/08 06:03:27;;;;;;;18.33;8.82;;;;;;;-0.65;100.00;100726.25;15314911;19;20019;-65
2022/01/08 06:08:28;;;;;;;24.30;9.75;;;;;;;-0.75;100.00;100724.81;15310782;19;20499;-67
2022/01/08 06:13:30;;;;;;;18.65;9.57;;;;;;;-0.78;100.00;100727.19;15311162;19;20025;-66
2022/01/08 06:18:32;;;;;;;16.23;7.93;;;;;;;-0.76;100.00;100735.00;15313448;19;20799;-66
2022/01/08 06:23:34;;;;;;;19.83;9.38;;;;;;;-0.86;100.00;100737.81;15311434;19;20024;-66
2022/01/08 06:28:35;;;;;;;19.63;8.82;;;;;;;-0.81;100.00;100751.81;15309375;19;20018;-66
2022/01/08 06:33:37;;;;;;;24.50;9.40;;;;;;;-0.76;100.00;100751.31;15309744;19;20095;-66
2022/01/08 06:38:40;;;;;;;19.05;8.52;;;;;;;-0.76;100.00;100758.16;15316496;19;20018;-67
2022/01/08 06:43:41;;;;;;;23.08;8.60;;;;;;;-0.74;100.00;100743.69;15313300;19;20010;-66
2022/01/08 06:48:43;;;;;;;24.25;9.65;;;;;;;-0.80;100.00;100753.59;15312148;19;20015;-66
2022/01/08 06:53:45;;;;;;;22.27;9.05;;;;;;;-0.86;100.00;100746.38;15313560;19;20090;-67
2022/01/08 06:58:47;;;;;;;19.08;8.80;;;;;;;-0.94;100.00;100751.06;15313617;19;20027;-66
2022/01/08 07:03:55;;;;;;;19.50;8.48;;;;;;;-1.00;100.00;100752.38;15306088;19;20368;-65
2022/01/08 07:09:06;;;;;;;19.08;8.02;;;;;;;-1.05;100.00;100758.88;15312397;19;20553;-67
2022/01/08 07:14:11;;;;;;;20.90;9.00;;;;;;;-1.13;100.00;100766.13;15289169;19;20035;-65
2022/01/08 07:19:30;;;;;;;16.92;8.88;;;;;;;-1.18;100.00;100760.69;15295774;19;20431;-65
2022/01/08 07:24:31;;;;;;;17.25;8.00;;;;;;;-1.17;100.00;100761.56;15296332;19;20023;-66
2022/01/08 07:29:36;;;;;;;20.52;9.18;;;;;;;-1.27;100.00;100765.25;15291710;19;20533;-65
2022/01/08 07:34:50;;;;;;;19.27;9.40;;;;;;;-1.32;100.00;100764.94;15277614;19;20035;-66
2022/01/08 07:39:51;;;;;;;24.15;9.70;;;;;;;-1.32;100.00;100762.38;15271810;19;20910;-66
2022/01/08 07:44:53;;;;;;;18.88;8.82;;;;;;;-1.34;100.00;100761.38;15295658;19;20044;-66
2022/01/08 07:49:55;;;;;;;21.95;10.00;;;;;;;-1.27;100.00;100758.41;15294102;19;20096;-66
2022/01/08 07:54:57;;;;;;;19.90;9.75;;;;;;;-1.32;100.00;100756.31;15292599;19;20019;-66
2022/01/08 07:59:59;;;;;;;23.20;9.27;;;;;;;-1.33;100.00;100760.59;15294234;19;20010;-66
2022/01/08 08:05:00;;;;;;;20.20;9.15;;;;;;;-1.34;100.00;100755.34;15295444;19;20042;-67
2022/01/08 08:10:08;;;;;;;24.10;10.77;;;;;;;-1.31;100.00;100753.84;15292564;19;20010;-68
2022/01/08 08:15:15;;;;;;;22.60;9.10;;;;;;;-1.32;100.00;100751.19;15294354;19;20054;-66
2022/01/08 08:20:17;;;;;;;24.17;10.93;;;;;;;-1.24;100.00;100750.03;15295516;19;20022;-65
2022/01/08 08:25:18;;;;;;;27.65;12.10;;;;;;;-1.17;100.00;100747.06;15291240;19;20019;-66
2022/01/08 08:30:21;;;;;;;27.23;11.57;;;;;;;-1.10;100.00;100749.19;15290390;19;20489;-66
2022/01/08 08:35:22;;;;;;;24.63;11.88;;;;;;;-1.07;100.00;100753.66;15288402;19;20085;-66
2022/01/08 08:40:24;;;;;;;23.65;10.27;;;;;;;-0.96;100.00;100742.38;15289887;19;20025;-66
2022/01/08 08:45:26;;;;;;;24.95;11.75;;;;;;;-0.87;100.00;100748.88;15289150;19;20085;-66
2022/01/08 08:50:28;;;;;;;25.67;11.63;;;;;;;-0.84;100.00;100747.41;15292260;19;20011;-66
2022/01/08 08:55:29;;;;;;;24.65;11.02;;;;;;;-0.62;100.00;100743.56;15292593;19;20456;-66
2022/01/08 09:00:31;;;;;;;31.95;12.48;;;;;;;-0.61;100.00;100728.22;15284833;19;20475;-66
2022/01/08 09:05:36;;;;;;;32.15;12.07;;;;;;;-0.48;100.00;100724.72;15285998;19;20151;-65
2022/01/08 09:10:52;;;;;;;25.25;11.23;;;;;;;-0.29;100.00;100725.81;15289271;19;20486;-68
2022/01/08 09:15:54;;;;;;;27.15;12.80;;;;;;;-0.23;100.00;100716.75;15291306;19;20011;-71
2022/01/08 09:20:56;;;;;;;30.17;12.23;;;;;;;-0.30;100.00;100721.47;15292723;19;20062;-67
2022/01/08 09:26:01;;;;;;;23.75;11.02;;;;;;;-0.28;100.00;100728.50;15286835;19;20107;-67
2022/01/08 09:31:03;;;;;;;22.60;11.32;;;;;;;-0.19;100.00;100726.44;15290694;19;20015;-67
2022/01/08 09:36:06;;;;;;;30.35;13.30;;;;;;;-0.15;100.00;100724.06;15286399;19;20464;-67
2022/01/08 09:41:08;;;;;;;23.58;12.45;;;;;;;-0.02;100.00;100713.69;15291627;19;20078;-67
2022/01/08 09:46:11;;;;;;;28.52;11.75;;;;;;;0.06;100.00;100722.75;15284996;19;20034;-66
2022/01/08 09:51:12;;;;;;;25.17;13.20;;;;;;;0.25;100.00;100719.53;15289799;19;20422;-67
2022/01/08 09:56:14;;;;;;;23.77;11.43;;;;;;;0.45;98.74;100712.06;15286102;19;20018;-67
2022/01/08 10:01:31;;;;;;;24.17;11.60;;;;;;;0.65;98.31;100723.50;15289576;19;20018;-66
2022/01/08 10:06:36;;;;;;;23.52;11.93;;;;;;;0.93;97.40;100704.41;15288060;19;20486;-67
2022/01/08 10:11:48;;;;;;;25.63;11.07;;;;;;;1.05;96.60;100687.91;15290587;19;20023;-67
2022/01/08 10:22:19;;;;;;;21.77;9.43;;;;;;;1.28;95.52;100679.63;15288357;19;20015;-67
2022/01/08 10:27:34;;;;;;;17.67;9.05;;;;;;;1.40;94.77;100676.00;15286262;19;20352;-66
2022/01/08 10:32:35;;;;;;;17.80;8.50;;;;;;;1.44;93.76;100661.53;15280967;19;20315;-67
2022/01/08 10:37:52;;;;;;;17.98;8.63;;;;;;;1.46;93.79;100652.19;15287604;19;20015;-67
2022/01/08 10:42:53;;;;;;;17.27;8.45;;;;;;;1.58;94.55;100644.22;15287218;19;20081;-66
2022/01/08 10:48:04;;;;;;;17.70;7.95;;;;;;;1.57;94.36;100632.97;15295006;19;20093;-67
2022/01/08 10:53:06;;;;;;;14.65;6.70;;;;;;;1.40;94.66;100623.50;15296525;19;20021;-68
2022/01/08 10:58:07;;;;;;;18.33;7.57;;;;;;;1.33;94.87;100608.50;15305031;19;20054;-66
2022/01/08 11:03:13;;;;;;;15.88;7.60;;;;;;;1.41;94.86;100599.47;15299028;19;20556;-71
2022/01/08 11:08:15;;;;;;;18.10;8.30;;;;;;;1.40;94.51;100593.41;15297785;19;20015;-71
2022/01/08 11:13:18;;;;;;;20.77;7.57;;;;;;;1.71;94.73;100597.56;15300618;19;20006;-70
2022/01/08 11:18:23;;;;;;;19.10;7.90;;;;;;;1.90;93.38;100601.91;15297368;19;20034;-71
2022/01/08 11:23:31;;;;;;;23.88;8.00;;;;;;;1.98;93.35;100594.53;15291884;19;20050;-71
2022/01/08 11:28:37;;;;;;;20.77;8.25;;;;;;;2.06;93.04;100584.59;15294668;19;20434;-69
2022/01/08 11:33:44;;;;;;;15.43;7.15;;;;;;;2.05;92.83;100585.41;15293057;19;20478;-69
2022/01/08 11:38:46;;;;;;;15.63;8.05;;;;;;;1.97;92.70;100581.53;15298596;19;20580;-69
2022/01/08 11:43:54;;;;;;;19.17;7.28;;;;;;;2.01;92.84;100574.06;15298545;19;20470;-68
2022/01/08 11:49:03;;;;;;;15.55;7.60;;;;;;;2.08;92.56;100551.97;15289564;19;20066;-65
2022/01/08 11:54:12;;;;;;;14.25;6.45;;;;;;;2.35;92.54;100538.59;15294865;19;20042;-66
2022/01/08 11:59:19;;;;;;;21.67;7.68;;;;;;;2.49;91.70;100524.56;15299190;19;20019;-66
2022/01/08 12:04:26;;;;;;;21.73;6.28;;;;;;;2.53;90.74;100503.22;15297064;19;20074;-67
2022/01/08 12:09:34;;;;;;;19.83;6.95;;;;;;;2.56;90.20;100495.59;15293552;19;20521;-66
2022/01/08 12:14:36;;;;;;;19.02;6.18;;;;;;;2.46;90.47;100481.41;15293446;19;20021;-66
2022/01/08 12:19:44;;;;;;;17.40;6.53;;;;;;;2.56;90.07;100477.50;15298073;19;20094;-66
2022/01/08 12:24:58;;;;;;;16.90;6.75;;;;;;;2.54;89.98;100466.22;15293976;19;20738;-66
2022/01/08 12:30:21;;;;;;;13.20;6.43;;;;;;;2.64;90.01;100447.72;15293548;19;20035;-67
2022/01/08 12:35:38;;;;;;;15.65;6.20;;;;;;;2.67;89.65;100433.16;15179310;19;2004500;-63
2022/01/08 12:41:26;;;;;;;19.25;7.07;;;;;;;2.53;89.59;100425.69;15285074;19;20290;-65
2022/01/08 12:46:59;;;;;;;16.88;6.65;;;;;;;2.42;90.09;100407.13;15285321;19;20018;-65
2022/01/08 12:52:13;;;;;;;18.00;6.10;;;;;;;2.32;90.86;100404.06;15276993;19;20010;-65
2022/01/08 12:57:46;;;;;;;16.98;6.85;;;;;;;2.29;90.70;100405.69;15287065;19;20408;-65
2022/01/08 13:03:00;;;;;;;15.23;6.45;;;;;;;2.19;90.98;100395.78;15284525;19;20114;-65
2022/01/08 13:08:02;;;;;;;17.90;7.53;;;;;;;2.17;91.17;100381.91;15290217;19;20014;-65
2022/01/08 13:13:04;;;;;;;15.20;6.18;;;;;;;2.16;91.61;100381.84;15288379;19;20550;-66
2022/01/08 13:18:24;;;;;;;14.65;7.28;;;;;;;2.04;91.94;100395.97;15291125;19;20018;-67
2022/01/08 13:23:25;;;;;;;18.05;8.07;;;;;;;1.91;91.96;100378.16;15292303;19;20062;-67
2022/01/08 13:28:27;;;;;;;15.77;8.02;;;;;;;1.85;92.22;100380.47;15289943;19;20021;-66
2022/01/08 13:33:29;;;;;;;16.90;8.85;;;;;;;1.70;92.79;100375.47;15289352;19;20078;-66
2022/01/08 13:38:36;;;;;;;18.83;10.18;;;;;;;1.67;92.75;100362.44;15293583;19;20349;-68
2022/01/08 13:43:57;;;;;;;20.85;9.05;;;;;;;1.61;93.39;100359.56;15290400;19;20021;-68
2022/01/08 13:49:00;;;;;;;23.40;10.27;;;;;;;1.56;93.43;100355.09;15291322;19;20493;-65
2022/01/08 13:59:45;;;;;;;27.83;10.77;;;;;;;1.41;93.82;100328.53;15291700;19;20031;-67
2022/01/08 14:04:53;;;;;;;21.00;10.07;;;;;;;1.44;94.06;100305.47;15291100;19;20038;-65
2022/01/08 14:09:58;;;;;;;24.58;9.60;;;;;;;1.35;94.29;100290.47;15289794;19;20087;-67
2022/01/08 14:15:05;;;;;;;28.85;10.00;;;;;;;1.31;94.55;100273.06;15285714;19;20023;-66
2022/01/08 14:20:13;;;;;;;24.92;11.75;;;;;;;1.25;95.05;100262.47;15264473;19;20018;-66
2022/01/08 14:25:23;;;;;;;29.48;12.50;;;;;;;1.25;95.24;100252.16;15291750;19;20010;-67
2022/01/08 14:30:52;;;;;;;28.55;13.15;;;;;;;1.29;94.95;100248.00;15289850;19;20022;-66
2022/01/08 14:36:06;;;;;;;30.52;14.23;;;;;;;1.22;94.98;100232.25;15285343;19;20011;-66
2022/01/08 14:41:13;;;;;;;32.95;14.65;;;;;;;1.19;94.50;100220.94;15287132;19;20613;-66
2022/01/08 14:46:20;;;;;;;34.17;14.80;;;;;;;1.19;94.58;100198.59;15280652;19;20019;-66
2022/01/08 14:51:41;;;;;;;37.90;15.70;;;;;;;1.22;94.37;100191.00;15301134;19;20369;-67
2022/01/08 14:56:44;;;;;;;38.60;15.35;;;;;;;1.18;94.32;100178.75;15301660;19;20014;-67
2022/01/08 15:01:46;;;;;;;45.80;15.15;;;;;;;1.21;94.02;100168.59;15293498;19;20026;-67
2022/01/08 15:06:53;;;;;;;36.42;16.13;;;;;;;1.23;94.33;100145.44;15292377;19;20017;-67
2022/01/08 15:12:01;;;;;;;35.45;14.77;;;;;;;1.28;94.33;100136.22;15287244;19;20336;-67
2022/01/08 15:17:15;;;;;;;37.70;15.23;;;;;;;1.27;94.48;100115.53;15284467;19;21458;-67
2022/01/08 15:22:30;;;;;;;31.42;12.93;;;;;;;1.32;94.59;100106.28;15296684;19;20003;-67
2022/01/08 15:27:49;;;;;;;29.55;13.63;;;;;;;1.29;94.88;100085.50;15288770;19;20014;-67
2022/01/08 15:32:57;;;;;;;34.63;14.35;;;;;;;1.30;94.42;100074.38;15289552;19;20050;-69
2022/01/08 15:37:59;;;;;;;38.20;14.98;;;;;;;1.38;94.60;100067.84;15299893;19;20007;-68
2022/01/08 15:43:00;;;;;;;31.65;13.80;;;;;;;1.37;94.53;100059.22;15293874;19;20021;-68
2022/01/08 15:48:04;;;;;;;26.95;12.75;;;;;;;1.37;94.18;100040.31;15296856;19;20050;-68
2022/01/08 15:53:06;;;;;;;22.63;11.27;;;;;;;1.40;94.17;100027.53;15296128;19;20011;-68
2022/01/08 15:58:07;;;;;;;27.48;12.85;;;;;;;1.35;94.46;100010.97;15299504;19;20006;-68
2022/01/08 16:03:14;;;;;;;22.90;10.32;;;;;;;1.44;94.23;99997.56;15289120;19;20007;-67
2022/01/08 16:08:28;;;;;;;25.87;11.83;;;;;;;1.38;94.36;99975.88;15282966;19;20014;-66
2022/01/08 16:13:41;;;;;;;25.17;10.80;;;;;;;1.48;93.78;99965.91;15288811;19;20015;-67
2022/01/08 16:18:42;;;;;;;22.58;10.20;;;;;;;1.49;93.37;99947.06;15297844;19;20018;-67
2022/01/08 16:23:45;;;;;;;25.40;9.98;;;;;;;1.53;93.22;99933.44;15292778;19;20018;-67
2022/01/08 16:28:49;;;;;;;21.50;9.40;;;;;;;1.54;93.25;99919.72;15288375;19;20489;-66
2022/01/08 16:34:08;;;;;;;24.98;8.63;;;;;;;1.53;92.81;99889.56;15279167;19;20011;-67
2022/01/08 16:39:15;;;;;;;20.00;8.43;;;;;;;1.49;92.61;99870.50;15294006;19;20546;-67
2022/01/08 16:44:20;;;;;;;19.48;8.27;;;;;;;1.61;92.14;99861.47;15289310;19;20086;-67
2022/01/08 16:49:22;;;;;;;14.10;6.30;;;;;;;1.61;91.51;99853.72;15292117;19;20613;-67
2022/01/08 16:54:25;;;;;;;13.93;5.80;;;;;;;1.63;91.94;99826.28;15292588;19;20094;-67
2022/01/08 16:59:27;;;;;;;13.30;6.30;;;;;;;1.57;92.10;99814.91;15295608;19;20007;-66
2022/01/08 17:04:30;;;;;;;15.90;4.78;;;;;;;1.50;92.63;99801.72;15295538;19;20043;-68
2022/01/08 17:09:32;;;;;;;18.08;6.20;;;;;;;1.47;93.49;99784.44;15292563;19;20010;-68
2022/01/08 17:14:33;;;;;;;13.15;4.45;;;;;;;1.41;93.82;99767.03;15291137;19;20077;-67
2022/01/08 17:19:35;;;;;;;11.57;4.65;;;;;;;1.34;94.42;99746.97;15292967;19;20022;-68
2022/01/08 17:24:39;;;;;;;9.52;3.55;;;;;;;1.27;95.04;99733.81;15290277;19;20117;-68
2022/01/08 17:30:13;;;;;;;12.80;3.65;;;;;;;1.22;94.92;99718.16;15285077;19;20081;-67
2022/01/08 17:35:16;;;;;;;10.73;4.10;;;;;;;1.17;95.44;99692.19;15185926;19;2004239;-66
2022/01/08 17:40:18;;;;;;;6.85;2.85;;;;;;;1.18;94.78;99681.03;15289021;19;20102;-67
2022/01/08 17:45:20;;;;;;;11.30;3.88;;;;;;;1.14;95.17;99665.41;15285098;19;20014;-67
2022/01/08 17:50:25;;;;;;;7.93;3.20;;;;;;;1.13;95.51;99651.63;15278932;19;20035;-66
2022/01/08 18:01:31;;;;;;;6.47;2.97;;;;;;;1.06;96.21;99626.44;15288330;19;20490;-64
2022/01/08 18:06:34;;;;;;;10.88;3.97;;;;;;;1.09;95.61;99621.41;15293087;19;20014;-67
2022/01/08 18:11:37;;;;;;;13.10;3.65;;;;;;;1.09;95.56;99600.78;15286292;19;20007;-67
2022/01/08 18:16:42;;;;;;;9.63;2.63;;;;;;;1.13;95.53;99587.19;15287143;19;20078;-66
2022/01/08 18:21:45;;;;;;;7.95;3.10;;;;;;;1.11;95.38;99581.09;15288539;19;20021;-66
2022/01/08 18:26:47;;;;;;;11.57;3.20;;;;;;;1.16;95.11;99558.91;15286181;19;20022;-67
2022/01/08 18:31:48;;;;;;;8.93;3.00;;;;;;;1.19;95.54;99540.97;15287977;19;20019;-67
2022/01/08 18:36:50;;;;;;;5.35;2.40;;;;;;;1.22;95.27;99527.31;15287385;19;20086;-66
2022/01/08 18:41:52;;;;;;;6.45;2.55;;;;;;;1.23;95.07;99511.91;15285219;19;20078;-66
2022/01/08 18:46:55;;;;;;;7.43;2.72;;;;;;;1.20;95.90;99496.31;15287654;19;20101;-67
2022/01/08 18:51:57;;;;;;;7.85;3.97;;;;;;;1.12;96.51;99487.44;15284598;19;20363;-66
2022/01/08 18:57:01;;;;;;;10.18;3.83;;;;;;;1.10;96.60;99481.38;15288309;19;20114;-66
2022/01/08 19:02:06;;;;;;;9.90;3.72;;;;;;;1.08;97.10;99466.66;15290180;19;20014;-66
2022/01/08 19:07:08;;;;;;;9.50;3.47;;;;;;;1.09;97.08;99456.41;15287379;19;20034;-67
2022/01/08 19:12:11;;;;;;;8.88;3.55;;;;;;;1.07;97.40;99437.44;15300685;19;20078;-67
2022/01/08 19:17:17;;;;;;;10.48;3.90;;;;;;;1.08;97.72;99434.00;15302150;19;20014;-66
2022/01/08 19:28:19;;;;;;;8.80;3.90;;;;;;;1.09;98.13;99402.25;15300969;19;20022;-67
2022/01/08 19:33:20;;;;;;;8.20;4.15;;;;;;;1.08;98.38;99390.19;15298643;19;20014;-67
2022/01/08 19:38:22;;;;;;;9.85;3.70;;;;;;;1.01;98.46;99365.06;15300294;19;20007;-67
2022/01/08 19:43:25;;;;;;;12.48;3.22;;;;;;;1.06;98.54;99363.47;15296984;19;20089;-67
2022/01/08 19:48:27;;;;;;;8.93;3.25;;;;;;;1.02;98.78;99341.91;15297844;19;20486;-67
2022/01/08 19:53:28;;;;;;;9.48;4.18;;;;;;;1.02;98.73;99328.13;15297904;19;20374;-68
2022/01/08 19:58:30;;;;;;;11.38;3.95;;;;;;;1.06;98.63;99322.25;15298655;19;20011;-67
2022/01/08 20:03:32;;;;;;;10.70;4.20;;;;;;;1.03;98.76;99307.53;15299380;19;20102;-67
2022/01/08 20:08:33;;;;;;;9.38;3.35;;;;;;;1.04;98.83;99292.97;15292528;19;20094;-68
2022/01/08 20:13:35;;;;;;;14.75;3.95;;;;;;;1.05;98.87;99272.41;15292647;19;20514;-67
2022/01/08 20:18:37;;;;;;;7.53;3.25;;;;;;;1.10;98.81;99267.38;15291185;19;20021;-67
2022/01/08 20:23:39;;;;;;;7.18;3.10;;;;;;;1.13;98.75;99251.13;15295219;19;20272;-67
2022/01/08 20:28:43;;;;;;;8.57;3.58;;;;;;;1.14;98.35;99227.06;15291035;19;20597;-68
2022/01/08 20:33:45;;;;;;;7.97;3.58;;;;;;;1.12;98.29;99224.47;15293717;19;20021;-67
2022/01/08 20:38:47;;;;;;;7.40;3.10;;;;;;;1.18;98.55;99206.59;15294404;19;20011;-66
2022/01/08 20:43:48;;;;;;;10.63;3.03;;;;;;;1.19;98.64;99185.13;15294766;19;20023;-67
2022/01/08 20:48:50;;;;;;;6.63;2.80;;;;;;;1.22;98.63;99186.94;15269934;19;20050;-67
2022/01/08 20:53:55;;;;;;;7.47;3.28;;;;;;;1.26;98.69;99180.16;15295353;19;20074;-67
2022/01/08 20:59:03;;;;;;;6.10;3.00;;;;;;;1.22;99.14;99169.75;15293565;19;20086;-67
2022/01/08 21:04:05;;;;;;;6.30;2.72;;;;;;;1.28;98.97;99152.72;15290533;19;20031;-68
2022/01/08 21:09:07;;;;;;;8.88;2.60;;;;;;;1.28;99.20;99152.72;15295743;19;20010;-68
2022/01/08 21:14:09;;;;;;;9.13;3.17;;;;;;;1.26;99.26;99131.16;15287866;19;20018;-68
2022/01/08 21:19:10;;;;;;;9.25;2.45;;;;;;;1.26;99.19;99119.13;15296330;19;20399;-67
2022/01/08 21:24:13;;;;;;;6.03;2.58;;;;;;;1.29;99.08;99105.47;15287032;19;20494;-68
2022/01/08 21:29:18;;;;;;;13.35;2.85;;;;;;;1.31;99.09;99101.22;15291249;19;20019;-67
2022/01/08 21:34:21;;;;;;;5.78;2.63;;;;;;;1.32;99.33;99079.75;15283360;19;20018;-68
2022/01/08 21:39:28;;;;;;;7.43;3.22;;;;;;;1.34;99.41;99057.47;15286263;19;20018;-68
2022/01/08 21:44:31;;;;;;;4.82;2.58;;;;;;;1.34;99.51;99057.47;15285701;19;20035;-68
2022/01/08 21:49:39;;;;;;;7.00;2.90;;;;;;;1.35;99.40;99044.63;15285298;19;20015;-67
2022/01/08 21:54:50;;;;;;;6.90;3.00;;;;;;;1.39;99.79;99035.25;15285772;19;20015;-67
2022/01/08 21:59:58;;;;;;;7.00;3.17;;;;;;;1.41;99.66;99028.41;15290555;19;20019;-68
2022/01/08 22:05:03;;;;;;;7.18;3.05;;;;;;;1.40;100.00;99009.50;15298050;19;20022;-67
2022/01/08 22:10:08;;;;;;;10.13;3.17;;;;;;;1.42;100.00;99001.78;15287077;19;20078;-68
2022/01/08 22:15:11;;;;;;;9.68;2.95;;;;;;;1.44;100.00;98991.50;15287395;19;20083;-68
2022/01/08 22:20:13;;;;;;;6.03;3.10;;;;;;;1.47;99.59;98989.91;15289238;19;20010;-67
2022/01/08 22:25:18;;;;;;;6.90;2.50;;;;;;;1.53;99.02;98971.09;15286093;19;20022;-67
2022/01/08 22:30:20;;;;;;;5.97;2.58;;;;;;;1.54;99.16;98960.81;15286278;19;20097;-68
2022/01/08 22:35:25;;;;;;;5.00;2.22;;;;;;;1.57;98.85;98955.72;15286836;19;20106;-67
2022/01/08 22:40:31;;;;;;;6.23;2.47;;;;;;;1.58;98.43;98949.72;15290920;19;20359;-68
2022/01/08 22:45:33;;;;;;;4.38;2.33;;;;;;;1.56;98.73;98941.09;15302421;19;20411;-67
2022/01/08 22:50:34;;;;;;;4.80;2.33;;;;;;;1.62;98.44;98916.25;15302516;19;20007;-68
2022/01/08 22:55:36;;;;;;;3.42;1.85;;;;;;;1.65;98.74;98908.59;15301235;19;20027;-67
2022/01/08 23:00:54;;;;;;;5.85;2.60;;;;;;;1.67;98.70;98919.84;15299427;19;20021;-67
2022/01/08 23:05:59;;;;;;;3.78;2.10;;;;;;;1.73;98.21;98900.19;15305307;19;20011;-68
2022/01/08 23:11:03;;;;;;;6.38;2.67;;;;;;;1.75;98.54;98895.06;15300812;19;20106;-68
2022/01/08 23:16:05;;;;;;;3.45;1.75;;;;;;;1.74;98.00;98890.72;15277853;19;20514;-68
2022/01/08 23:21:07;;;;;;;4.20;1.88;;;;;;;1.78;97.72;98879.66;15301139;19;20077;-68
2022/01/08 23:26:09;;;;;;;4.90;2.17;;;;;;;1.78;97.92;98869.31;15295558;19;20014;-68
2022/01/08 23:31:11;;;;;;;3.40;1.77;;;;;;;1.77;98.08;98857.25;15297483;19;20417;-68
2022/01/08 23:36:12;;;;;;;4.00;1.75;;;;;;;1.84;98.10;98853.97;15294474;19;20022;-68
2022/01/08 23:41:15;;;;;;;4.40;1.83;;;;;;;1.86;98.02;98849.72;15299545;19;20012;-68
2022/01/08 23:46:17;;;;;;;4.78;2.00;;;;;;;1.87;98.07;98841.13;15296997;19;20074;-68
2022/01/08 23:51:21;;;;;;;4.25;2.03;;;;;;;1.88;97.92;98836.84;15297252;19;20097;-67
2022/01/08 23:56:23;;;;;;;4.53;2.10;;;;;;;1.82;98.38;98826.38;15293363;19;20010;-68
